Time;durP1;ratioP1;P1;durP2;ratioP2;P2;SDS_P1;SDS_P2;PMS_P1;PMS_P2;Temp;Humidity;BMP_temperature;BMP_pressure;BME280_temperature;BME280_humidity;BME280_pressure;Samples;Min_cycle;Max_cycle;Signal;HPM_P1;HPM_P2
2021/07/29 00:00:39;;;;;;;3.93;3.50;;;;;;;;;;4974492;28;20670;-73
2021/07/29 00:03:24;;;;;;;6.17;4.00;;;;;;;;;;4974348;28;20716;-72
2021/07/29 00:06:13;;;;;;;5.73;3.83;;;;;;;;;;4974828;28;20207;-73
2021/07/29 00:08:59;;;;;;;5.13;3.17;;;;;;;;;;4974718;28;20232;-72
2021/07/29 00:11:44;;;;;;;4.83;3.90;;;;;;;;;;4975695;28;20200;-72
2021/07/29 00:14:29;;;;;;;3.90;3.20;;;;;;;;;;4974649;28;20266;-72
2021/07/29 00:17:27;;;;;;;6.17;3.70;;;;;;;;;;4974667;28;20220;-72
2021/07/29 00:20:12;;;;;;;4.93;3.90;;;;;;;;;;4975165;28;20751;-72
2021/07/29 00:22:58;;;;;;;5.33;3.60;;;;;;;;;;4974758;28;20242;-73
2021/07/29 00:25:44;;;;;;;5.10;3.73;;;;;;;;;;4975469;28;20700;-73
2021/07/29 00:28:29;;;;;;;3.80;3.47;;;;;;;;;;4974275;28;20230;-72
2021/07/29 00:31:14;;;;;;;6.37;3.40;;;;;;;;;;4975504;28;20353;-72
2021/07/29 00:33:59;;;;;;;5.07;3.57;;;;;;;;;;4974340;28;20215;-73
2021/07/29 00:36:44;;;;;;;5.60;3.60;;;;;;;;;;4974208;28;21004;-71
2021/07/29 00:39:29;;;;;;;4.33;3.23;;;;;;;;;;4957950;28;20224;-72
2021/07/29 00:42:15;;;;;;;5.63;3.30;;;;;;;;;;4956156;28;20201;-72
2021/07/29 00:45:00;;;;;;;4.57;3.40;;;;;;;;;;4975182;28;21021;-72
2021/07/29 00:47:46;;;;;;;5.07;3.33;;;;;;;;;;4973390;28;20247;-72
2021/07/29 00:50:31;;;;;;;5.87;3.97;;;;;;;;;;4974765;28;20207;-72
2021/07/29 00:53:16;;;;;;;4.20;3.40;;;;;;;;;;4974414;28;20703;-73
2021/07/29 00:56:01;;;;;;;4.53;3.13;;;;;;;;;;4973616;28;20235;-72
2021/07/29 00:58:47;;;;;;;7.60;3.67;;;;;;;;;;4973963;28;20248;-72
2021/07/29 01:01:32;;;;;;;6.43;3.60;;;;;;;;;;4974588;28;20239;-73
2021/07/29 01:04:17;;;;;;;5.37;3.43;;;;;;;;;;4973923;28;20227;-73
2021/07/29 01:07:02;;;;;;;6.00;3.43;;;;;;;;;;4972855;28;20240;-72
2021/07/29 01:09:48;;;;;;;4.57;3.20;;;;;;;;;;4974355;28;20569;-72
2021/07/29 01:12:35;;;;;;;8.47;3.77;;;;;;;;;;4972876;28;20200;-73
2021/07/29 01:15:21;;;;;;;5.93;3.50;;;;;;;;;;4974681;28;20572;-72
2021/07/29 01:18:06;;;;;;;7.50;3.80;;;;;;;;;;4972291;28;20467;-73
2021/07/29 01:20:52;;;;;;;7.50;3.70;;;;;;;;;;4974280;28;20219;-72
2021/07/29 01:23:37;;;;;;;6.83;3.27;;;;;;;;;;4973688;28;20325;-72
2021/07/29 01:26:22;;;;;;;7.70;3.43;;;;;;;;;;4972666;28;20203;-73
2021/07/29 01:29:07;;;;;;;7.03;3.43;;;;;;;;;;4974364;28;20212;-72
2021/07/29 01:31:52;;;;;;;7.10;3.00;;;;;;;;;;4971923;28;20344;-73
2021/07/29 01:34:37;;;;;;;6.63;3.63;;;;;;;;;;4973984;28;20230;-72
2021/07/29 01:37:23;;;;;;;7.73;3.40;;;;;;;;;;4972848;28;20228;-72
2021/07/29 01:40:09;;;;;;;8.35;3.70;;;;;;;;;;4973475;28;20435;-72
2021/07/29 01:42:55;;;;;;;5.20;2.97;;;;;;;;;;4973342;28;20263;-72
2021/07/29 01:45:39;;;;;;;5.87;3.23;;;;;;;;;;4974246;28;20283;-72
2021/07/29 01:48:25;;;;;;;6.97;3.40;;;;;;;;;;4973440;28;20259;-73
2021/07/29 01:51:10;;;;;;;5.97;3.20;;;;;;;;;;4973370;28;20215;-72
2021/07/29 01:53:56;;;;;;;5.67;3.30;;;;;;;;;;4972772;28;20220;-72
2021/07/29 01:56:43;;;;;;;6.30;3.37;;;;;;;;;;4970126;28;20863;-72
2021/07/29 01:59:28;;;;;;;5.53;3.37;;;;;;;;;;4974166;28;20435;-72
2021/07/29 02:02:13;;;;;;;5.53;3.23;;;;;;;;;;4972839;28;20701;-72
2021/07/29 02:04:58;;;;;;;7.50;3.10;;;;;;;;;;4974007;28;20724;-72
2021/07/29 02:07:43;;;;;;;7.63;3.07;;;;;;;;;;4971815;28;20257;-72
2021/07/29 02:10:29;;;;;;;7.57;3.50;;;;;;;;;;4974126;28;20212;-72
2021/07/29 02:13:14;;;;;;;8.53;3.30;;;;;;;;;;4972071;28;20211;-73
2021/07/29 02:15:59;;;;;;;5.83;3.47;;;;;;;;;;4973101;28;20216;-73
2021/07/29 02:18:44;;;;;;;7.77;3.87;;;;;;;;;;4973630;28;20231;-72
2021/07/29 02:21:28;;;;;;;7.27;3.50;;;;;;;;;;4970895;28;20603;-71
2021/07/29 02:24:13;;;;;;;9.47;3.43;;;;;;;;;;4954404;29;20240;-72
2021/07/29 02:27:00;;;;;;;10.70;4.03;;;;;;;;;;4962809;28;20247;-73
2021/07/29 02:29:45;;;;;;;5.60;3.43;;;;;;;;;;4973446;28;20211;-72
2021/07/29 02:32:30;;;;;;;8.60;3.40;;;;;;;;;;4972997;28;20591;-72
2021/07/29 02:35:15;;;;;;;5.67;3.70;;;;;;;;;;4956791;28;20751;-73
2021/07/29 02:38:00;;;;;;;7.37;3.40;;;;;;;;;;4964241;28;20243;-72
2021/07/29 02:40:45;;;;;;;6.65;3.38;;;;;;;;;;4962596;28;20948;-73
2021/07/29 02:43:32;;;;;;;6.50;3.40;;;;;;;;;;4964860;28;20688;-73
2021/07/29 02:46:17;;;;;;;8.83;3.53;;;;;;;;;;4962131;28;20729;-73
2021/07/29 02:49:02;;;;;;;6.97;3.50;;;;;;;;;;4960644;28;20295;-73
2021/07/29 02:51:47;;;;;;;11.10;4.10;;;;;;;;;;4958361;28;20201;-73
2021/07/29 02:54:33;;;;;;;9.87;3.80;;;;;;;;;;4963218;28;20208;-72
2021/07/29 02:57:18;;;;;;;10.50;3.60;;;;;;;;;;4963561;28;20585;-72
2021/07/29 03:00:05;;;;;;;8.37;3.40;;;;;;;;;;4958204;28;20208;-73
2021/07/29 03:02:50;;;;;;;11.33;4.30;;;;;;;;;;5006793;23;20242;-74
2021/07/29 03:05:35;;;;;;;7.73;3.57;;;;;;;;;;5010697;28;20293;-74
2021/07/29 03:08:20;;;;;;;7.93;3.70;;;;;;;;;;5009854;28;20297;-74
2021/07/29 03:11:05;;;;;;;10.00;3.73;;;;;;;;;;5010459;28;20293;-74
2021/07/29 03:13:50;;;;;;;8.90;3.80;;;;;;;;;;5021299;28;20307;-74
2021/07/29 03:16:36;;;;;;;8.97;3.90;;;;;;;;;;5019869;28;20222;-74
2021/07/29 03:19:21;;;;;;;8.47;3.70;;;;;;;;;;5022709;28;20209;-72
2021/07/29 03:22:07;;;;;;;7.63;3.40;;;;;;;;;;5023094;28;20280;-74
2021/07/29 03:24:52;;;;;;;8.87;3.60;;;;;;;;;;5020730;28;20253;-74
2021/07/29 03:27:37;;;;;;;6.27;3.60;;;;;;;;;;5015375;28;20288;-74
2021/07/29 03:30:22;;;;;;;8.50;4.10;;;;;;;;;;5020961;28;20210;-74
2021/07/29 03:33:10;;;;;;;14.07;4.53;;;;;;;;;;5016237;28;20307;-74
2021/07/29 03:35:55;;;;;;;8.07;3.90;;;;;;;;;;5019939;28;20203;-75
2021/07/29 03:38:40;;;;;;;9.60;4.23;;;;;;;;;;5019935;28;20209;-75
2021/07/29 03:41:24;;;;;;;9.03;3.73;;;;;;;;;;5019393;28;20237;-75
2021/07/29 03:44:09;;;;;;;9.65;4.43;;;;;;;;;;5013591;28;20809;-75
2021/07/29 03:46:54;;;;;;;8.83;4.20;;;;;;;;;;5024785;28;20214;-74
2021/07/29 03:49:40;;;;;;;9.07;4.13;;;;;;;;;;5030132;28;20205;-74
2021/07/29 03:52:25;;;;;;;10.47;4.23;;;;;;;;;;5028019;28;20229;-75
2021/07/29 03:55:10;;;;;;;8.77;3.97;;;;;;;;;;5029148;28;20217;-75
2021/07/29 03:57:55;;;;;;;10.30;4.27;;;;;;;;;;5027629;28;20217;-75
2021/07/29 04:00:40;;;;;;;8.80;3.80;;;;;;;;;;5029114;28;20233;-75
2021/07/29 04:03:25;;;;;;;9.00;4.20;;;;;;;;;;5030315;28;20623;-75
2021/07/29 04:06:16;;;;;;;8.27;4.20;;;;;;;;;;5028420;28;20709;-74
2021/07/29 04:09:01;;;;;;;9.23;4.00;;;;;;;;;;5030486;28;20206;-75
2021/07/29 04:11:46;;;;;;;10.13;4.30;;;;;;;;;;5029667;28;20217;-74
2021/07/29 04:14:31;;;;;;;12.50;4.67;;;;;;;;;;5028400;28;20218;-75
2021/07/29 04:17:17;;;;;;;8.00;4.40;;;;;;;;;;5010117;28;20210;-75
2021/07/29 04:20:02;;;;;;;11.20;4.97;;;;;;;;;;5018312;28;20676;-74
2021/07/29 04:22:48;;;;;;;10.77;4.07;;;;;;;;;;5030030;28;20276;-74
2021/07/29 04:25:33;;;;;;;9.60;4.60;;;;;;;;;;5029105;28;20217;-75
2021/07/29 04:28:18;;;;;;;8.50;3.77;;;;;;;;;;5030421;28;20213;-75
2021/07/29 04:31:02;;;;;;;11.03;4.27;;;;;;;;;;5028059;28;20221;-75
2021/07/29 04:33:49;;;;;;;7.40;4.00;;;;;;;;;;5029350;28;20237;-74
2021/07/29 04:36:38;;;;;;;10.03;4.07;;;;;;;;;;5028589;28;20687;-74
2021/07/29 04:39:27;;;;;;;9.13;3.97;;;;;;;;;;5028793;28;20225;-74
2021/07/29 04:42:12;;;;;;;9.50;4.33;;;;;;;;;;5028854;28;20758;-74
2021/07/29 04:44:57;;;;;;;11.40;4.55;;;;;;;;;;5029759;28;21254;-74
2021/07/29 04:47:42;;;;;;;7.43;3.87;;;;;;;;;;5033249;28;20213;-74
2021/07/29 04:50:27;;;;;;;11.57;3.97;;;;;;;;;;5032817;28;20631;-75
2021/07/29 04:53:12;;;;;;;11.60;4.07;;;;;;;;;;5033591;28;20222;-74
2021/07/29 04:55:59;;;;;;;10.10;4.47;;;;;;;;;;5032051;28;20210;-74
2021/07/29 04:58:44;;;;;;;9.97;4.00;;;;;;;;;;5032158;28;20822;-74
2021/07/29 05:01:28;;;;;;;9.53;3.77;;;;;;;;;;5031928;28;20300;-75
2021/07/29 05:04:13;;;;;;;10.30;4.40;;;;;;;;;;5030968;28;20206;-73
2021/07/29 05:06:58;;;;;;;9.00;4.07;;;;;;;;;;5032848;28;20233;-75
2021/07/29 05:09:43;;;;;;;10.43;3.90;;;;;;;;;;5032409;28;20213;-74
2021/07/29 05:12:29;;;;;;;9.73;4.10;;;;;;;;;;5031381;28;20232;-74
2021/07/29 05:15:14;;;;;;;9.87;3.97;;;;;;;;;;5031536;28;20209;-74
2021/07/29 05:17:59;;;;;;;10.23;4.17;;;;;;;;;;5031735;28;20288;-74
2021/07/29 05:20:44;;;;;;;11.83;4.10;;;;;;;;;;5032549;28;20230;-74
2021/07/29 05:23:29;;;;;;;10.50;4.03;;;;;;;;;;5024198;28;20230;-74
2021/07/29 05:26:16;;;;;;;9.07;4.07;;;;;;;;;;5022099;28;20219;-74
2021/07/29 05:29:03;;;;;;;11.83;4.20;;;;;;;;;;5020102;28;20213;-74
2021/07/29 05:31:48;;;;;;;8.43;3.57;;;;;;;;;;5022820;28;20679;-74
2021/07/29 05:34:33;;;;;;;12.53;4.30;;;;;;;;;;5030894;28;20209;-75
2021/07/29 05:37:18;;;;;;;11.13;4.23;;;;;;;;;;5026108;28;20222;-75
2021/07/29 05:40:04;;;;;;;9.53;4.07;;;;;;;;;;5033020;28;20216;-75
2021/07/29 05:42:49;;;;;;;8.93;4.20;;;;;;;;;;5032459;28;20316;-75
2021/07/29 05:45:35;;;;;;;11.40;4.53;;;;;;;;;;5032806;28;20288;-75
2021/07/29 05:48:20;;;;;;;9.80;4.20;;;;;;;;;;5032053;28;20771;-74
2021/07/29 05:51:05;;;;;;;8.97;4.23;;;;;;;;;;5033019;28;20202;-74
2021/07/29 05:53:50;;;;;;;10.90;4.20;;;;;;;;;;5032733;28;20296;-74
2021/07/29 05:56:35;;;;;;;10.33;3.87;;;;;;;;;;5031051;28;20222;-75
2021/07/29 05:59:20;;;;;;;9.10;3.77;;;;;;;;;;5027246;28;20209;-75
2021/07/29 06:02:06;;;;;;;9.13;4.30;;;;;;;;;;5022256;28;20614;-75
2021/07/29 06:04:51;;;;;;;9.80;4.03;;;;;;;;;;5010902;28;20206;-75
2021/07/29 06:07:36;;;;;;;9.27;4.27;;;;;;;;;;5010402;28;20330;-74
2021/07/29 06:10:21;;;;;;;11.97;4.60;;;;;;;;;;5023353;28;20214;-75
2021/07/29 06:13:06;;;;;;;9.80;4.50;;;;;;;;;;5022452;28;20229;-74
2021/07/29 06:15:51;;;;;;;13.87;5.10;;;;;;;;;;5028674;28;20260;-75
2021/07/29 06:18:47;;;;;;;14.40;4.73;;;;;;;;;;5022922;28;20293;-75
2021/07/29 06:21:32;;;;;;;9.77;4.30;;;;;;;;;;5030176;28;20224;-76
2021/07/29 06:24:17;;;;;;;11.40;4.07;;;;;;;;;;5030129;28;20241;-75
2021/07/29 06:27:02;;;;;;;10.30;4.47;;;;;;;;;;5022249;28;20280;-75
2021/07/29 06:29:47;;;;;;;11.85;4.57;;;;;;;;;;5024928;28;20838;-75
2021/07/29 06:32:32;;;;;;;8.27;3.93;;;;;;;;;;5031467;28;20249;-75
2021/07/29 06:35:18;;;;;;;13.30;4.80;;;;;;;;;;5031475;28;20218;-76
2021/07/29 06:38:03;;;;;;;10.50;4.40;;;;;;;;;;5022702;28;20208;-75
2021/07/29 06:40:48;;;;;;;8.47;4.13;;;;;;;;;;5030856;28;20310;-75
2021/07/29 06:43:33;;;;;;;9.63;4.37;;;;;;;;;;5032836;28;20914;-75
2021/07/29 06:46:18;;;;;;;11.57;4.23;;;;;;;;;;5032354;28;20213;-76
2021/07/29 06:49:03;;;;;;;10.17;4.30;;;;;;;;;;5031806;28;20264;-74
2021/07/29 06:51:49;;;;;;;9.88;4.50;;;;;;;;;;5027239;28;20441;-74
2021/07/29 06:54:34;;;;;;;10.57;4.57;;;;;;;;;;5026558;28;20297;-75
2021/07/29 06:57:19;;;;;;;12.27;4.60;;;;;;;;;;5030337;28;20218;-74
2021/07/29 07:00:04;;;;;;;8.47;4.30;;;;;;;;;;5032273;28;20209;-74
2021/07/29 07:02:49;;;;;;;10.07;3.90;;;;;;;;;;5031393;28;20229;-74
2021/07/29 07:05:35;;;;;;;12.23;4.30;;;;;;;;;;5030249;28;20705;-73
2021/07/29 07:08:21;;;;;;;8.70;4.03;;;;;;;;;;5032192;28;20326;-73
2021/07/29 07:11:10;;;;;;;12.43;3.83;;;;;;;;;;5032917;28;20295;-75
2021/07/29 07:13:55;;;;;;;8.63;3.77;;;;;;;;;;5030478;28;20241;-74
2021/07/29 07:16:40;;;;;;;8.23;4.00;;;;;;;;;;5030556;28;20208;-75
2021/07/29 07:19:25;;;;;;;8.97;3.40;;;;;;;;;;5030697;28;20315;-74
2021/07/29 07:22:10;;;;;;;11.43;3.97;;;;;;;;;;5025576;28;20236;-74
2021/07/29 07:24:56;;;;;;;9.70;4.10;;;;;;;;;;5028036;28;20240;-75
2021/07/29 07:27:41;;;;;;;12.30;4.50;;;;;;;;;;5028322;28;20208;-74
2021/07/29 07:30:27;;;;;;;10.32;4.47;;;;;;;;;;5031178;28;20422;-74
2021/07/29 07:33:11;;;;;;;11.30;4.00;;;;;;;;;;5030367;28;20231;-75
2021/07/29 07:35:56;;;;;;;9.87;3.73;;;;;;;;;;5029085;28;20592;-75
2021/07/29 07:38:41;;;;;;;11.10;4.03;;;;;;;;;;5032063;28;20204;-75
2021/07/29 07:41:27;;;;;;;8.87;3.47;;;;;;;;;;5031532;28;20682;-74
2021/07/29 07:44:12;;;;;;;9.73;3.93;;;;;;;;;;5030011;28;20209;-74
2021/07/29 07:46:57;;;;;;;11.50;3.97;;;;;;;;;;5029817;28;20240;-75
2021/07/29 07:49:43;;;;;;;10.90;4.17;;;;;;;;;;5030601;28;20339;-74
2021/07/29 07:52:28;;;;;;;9.47;3.40;;;;;;;;;;5029986;28;20296;-74
2021/07/29 07:55:14;;;;;;;8.97;3.70;;;;;;;;;;5030938;28;20571;-74
2021/07/29 07:58:00;;;;;;;6.17;3.60;;;;;;;;;;5030865;28;20701;-74
2021/07/29 08:00:45;;;;;;;10.63;3.80;;;;;;;;;;5030544;28;20289;-74
2021/07/29 08:03:30;;;;;;;11.73;4.27;;;;;;;;;;5029982;28;20357;-74
2021/07/29 08:06:15;;;;;;;8.13;3.20;;;;;;;;;;5017751;28;20217;-74
2021/07/29 08:09:00;;;;;;;8.20;3.40;;;;;;;;;;5030170;28;20333;-74
2021/07/29 08:11:45;;;;;;;10.07;3.57;;;;;;;;;;5031597;28;20834;-74
2021/07/29 08:14:32;;;;;;;6.80;2.80;;;;;;;;;;5029025;28;20205;-74
2021/07/29 08:17:17;;;;;;;7.40;3.40;;;;;;;;;;5020055;28;20214;-74
2021/07/29 08:20:01;;;;;;;8.10;3.43;;;;;;;;;;5031945;28;20201;-74
2021/07/29 08:22:46;;;;;;;8.10;3.27;;;;;;;;;;5028670;28;20229;-74
2021/07/29 08:25:31;;;;;;;7.20;2.77;;;;;;;;;;5030514;28;20296;-74
2021/07/29 08:28:16;;;;;;;8.63;3.40;;;;;;;;;;5034413;28;20250;-74
2021/07/29 08:31:02;;;;;;;6.97;2.90;;;;;;;;;;5032343;28;20301;-73
2021/07/29 08:33:48;;;;;;;7.80;2.93;;;;;;;;;;5030777;28;20279;-74
2021/07/29 08:36:33;;;;;;;5.97;2.90;;;;;;;;;;5033661;28;20198;-73
2021/07/29 08:39:18;;;;;;;6.50;2.90;;;;;;;;;;5035245;28;20211;-73
2021/07/29 08:42:03;;;;;;;7.73;3.10;;;;;;;;;;5034202;28;20595;-74
2021/07/29 08:44:48;;;;;;;7.87;3.17;;;;;;;;;;5032171;28;20217;-74
2021/07/29 08:47:35;;;;;;;8.83;3.30;;;;;;;;;;5032809;28;20229;-74
2021/07/29 08:50:22;;;;;;;5.53;3.10;;;;;;;;;;5034818;28;20209;-74
2021/07/29 08:53:07;;;;;;;8.27;3.23;;;;;;;;;;5033816;28;20267;-72
2021/07/29 08:55:54;;;;;;;8.77;3.33;;;;;;;;;;5031891;28;20209;-73
2021/07/29 08:58:39;;;;;;;8.13;3.33;;;;;;;;;;5033703;28;20301;-75
2021/07/29 09:01:38;;;;;;;8.30;3.60;;;;;;;;;;5032141;28;20857;-74
2021/07/29 09:04:25;;;;;;;6.60;3.37;;;;;;;;;;5032542;23;20246;-75
2021/07/29 09:07:10;;;;;;;7.73;3.10;;;;;;;;;;5013005;28;20202;-76
2021/07/29 09:09:55;;;;;;;10.00;3.57;;;;;;;;;;5012737;28;20731;-75
2021/07/29 09:12:40;;;;;;;6.83;2.93;;;;;;;;;;5012509;28;20219;-76
2021/07/29 09:15:25;;;;;;;10.32;3.60;;;;;;;;;;5030180;28;20756;-77
2021/07/29 09:18:09;;;;;;;6.53;3.13;;;;;;;;;;5032428;28;20202;-76
2021/07/29 09:21:10;;;;;;;8.77;3.03;;;;;;;;;;5033153;28;20205;-77
2021/07/29 09:24:05;;;;;;;11.63;3.10;;;;;;;;;;5031926;28;20754;-76
2021/07/29 09:26:57;;;;;;;8.57;2.77;;;;;;;;;;5032366;28;20214;-76
2021/07/29 09:29:43;;;;;;;8.57;3.17;;;;;;;;;;5032826;28;20774;-76
2021/07/29 09:32:30;;;;;;;7.00;2.60;;;;;;;;;;5031025;28;20272;-78
2021/07/29 09:35:26;;;;;;;8.20;3.07;;;;;;;;;;5033271;28;20276;-74
2021/07/29 09:38:20;;;;;;;6.17;3.07;;;;;;;;;;5033110;28;20226;-74
2021/07/29 09:41:06;;;;;;;5.80;3.03;;;;;;;;;;5032538;28;20199;-73
2021/07/29 09:43:54;;;;;;;8.23;3.20;;;;;;;;;;5031532;28;20257;-73
2021/07/29 09:46:40;;;;;;;9.13;3.30;;;;;;;;;;5032130;28;20214;-73
2021/07/29 09:49:25;;;;;;;8.60;3.00;;;;;;;;;;5032725;28;20198;-74
2021/07/29 09:52:10;;;;;;;9.13;3.60;;;;;;;;;;5031367;28;20694;-74
2021/07/29 09:54:57;;;;;;;6.07;3.30;;;;;;;;;;5032348;28;20216;-73
2021/07/29 09:57:42;;;;;;;7.87;3.50;;;;;;;;;;5031529;28;20214;-73
2021/07/29 10:00:27;;;;;;;8.93;3.70;;;;;;;;;;5031346;28;20284;-74
2021/07/29 10:03:12;;;;;;;8.87;3.00;;;;;;;;;;5031917;28;20238;-74
2021/07/29 10:06:01;;;;;;;9.37;3.10;;;;;;;;;;5031599;28;20216;-76
2021/07/29 10:08:51;;;;;;;10.40;3.67;;;;;;;;;;5032386;28;20210;-73
2021/07/29 10:11:39;;;;;;;6.13;3.10;;;;;;;;;;5031503;28;20213;-73
2021/07/29 10:14:42;;;;;;;10.10;3.88;;;;;;;;;;5031945;28;20405;-72
2021/07/29 10:17:47;;;;;;;7.53;3.40;;;;;;;;;;5031510;28;20697;-72
2021/07/29 10:20:33;;;;;;;6.67;3.30;;;;;;;;;;5031833;28;20299;-73
2021/07/29 10:23:28;;;;;;;9.57;3.30;;;;;;;;;;5030982;28;20306;-73
2021/07/29 10:26:13;;;;;;;8.20;3.43;;;;;;;;;;5019530;28;20349;-73
2021/07/29 10:29:13;;;;;;;7.77;3.70;;;;;;;;;;5018254;28;20282;-72
2021/07/29 10:32:02;;;;;;;8.17;3.90;;;;;;;;;;5030825;28;20288;-73
2021/07/29 10:34:50;;;;;;;9.00;3.47;;;;;;;;;;5027514;28;20230;-72
2021/07/29 10:37:41;;;;;;;11.77;4.17;;;;;;;;;;5031189;28;20213;-73
2021/07/29 10:40:32;;;;;;;12.77;5.10;;;;;;;;;;5031876;28;20232;-72
2021/07/29 10:43:38;;;;;;;14.43;6.73;;;;;;;;;;5030117;28;20602;-75
2021/07/29 10:46:44;;;;;;;12.60;5.33;;;;;;;;;;5031051;28;20202;-75
2021/07/29 10:49:49;;;;;;;8.37;5.00;;;;;;;;;;5030526;28;20252;-74
2021/07/29 10:52:36;;;;;;;9.10;5.30;;;;;;;;;;5031633;28;20798;-73
2021/07/29 10:55:22;;;;;;;8.67;4.27;;;;;;;;;;5031622;28;20320;-73
2021/07/29 10:58:11;;;;;;;11.17;4.43;;;;;;;;;;5029961;28;20334;-72
2021/07/29 11:00:56;;;;;;;11.27;4.97;;;;;;;;;;5031054;28;20213;-74
2021/07/29 11:03:46;;;;;;;6.93;4.50;;;;;;;;;;5031001;28;20245;-74
2021/07/29 11:06:36;;;;;;;10.57;4.87;;;;;;;;;;5030596;28;20213;-74
2021/07/29 11:09:22;;;;;;;11.15;5.00;;;;;;;;;;5030419;28;20480;-75
2021/07/29 11:12:13;;;;;;;10.47;4.63;;;;;;;;;;5029271;28;20710;-75
2021/07/29 11:14:59;;;;;;;10.67;4.40;;;;;;;;;;5026039;28;20194;-75
2021/07/29 11:17:43;;;;;;;11.07;4.23;;;;;;;;;;5025437;28;20210;-75
2021/07/29 11:20:29;;;;;;;11.73;4.00;;;;;;;;;;5027851;28;20206;-76
2021/07/29 11:23:15;;;;;;;7.87;3.93;;;;;;;;;;5029585;28;20814;-76
2021/07/29 11:26:02;;;;;;;9.93;4.00;;;;;;;;;;5030243;28;20293;-75
2021/07/29 11:29:02;;;;;;;9.23;3.60;;;;;;;;;;5031031;28;20213;-76
2021/07/29 11:31:47;;;;;;;7.20;3.67;;;;;;;;;;5031402;28;20203;-77
2021/07/29 11:34:32;;;;;;;9.13;3.80;;;;;;;;;;5029307;28;20352;-76
2021/07/29 11:37:17;;;;;;;8.47;3.70;;;;;;;;;;5028565;28;20294;-75
2021/07/29 11:40:03;;;;;;;9.17;3.90;;;;;;;;;;5029271;28;20712;-75
2021/07/29 11:42:49;;;;;;;7.77;3.83;;;;;;;;;;5030410;28;20215;-75
2021/07/29 11:45:34;;;;;;;9.23;4.00;;;;;;;;;;5030641;28;20212;-76
2021/07/29 11:48:20;;;;;;;10.60;4.10;;;;;;;;;;5028403;28;20820;-74
2021/07/29 11:51:14;;;;;;;8.43;3.77;;;;;;;;;;5028935;28;20339;-76
2021/07/29 11:54:00;;;;;;;9.97;4.07;;;;;;;;;;5025832;28;20253;-74
2021/07/29 11:56:45;;;;;;;9.17;3.80;;;;;;;;;;5008664;28;20209;-75
2021/07/29 11:59:36;;;;;;;7.77;4.47;;;;;;;;;;5028856;28;20216;-77
2021/07/29 12:02:22;;;;;;;12.03;4.90;;;;;;;;;;5030764;28;20707;-76
2021/07/29 12:05:08;;;;;;;8.93;4.20;;;;;;;;;;5030419;28;20594;-76
2021/07/29 12:07:53;;;;;;;6.93;3.70;;;;;;;;;;5028586;28;20208;-75
2021/07/29 12:10:38;;;;;;;9.13;4.20;;;;;;;;;;5028666;28;20895;-73
2021/07/29 12:13:23;;;;;;;7.43;3.93;;;;;;;;;;5026429;28;20244;-74
2021/07/29 12:16:10;;;;;;;7.50;3.33;;;;;;;;;;5025584;28;20225;-75
2021/07/29 12:19:02;;;;;;;9.23;3.73;;;;;;;;;;5028276;28;20212;-74
2021/07/29 12:21:48;;;;;;;6.70;3.50;;;;;;;;;;5010649;28;20280;-74
2021/07/29 12:24:44;;;;;;;6.20;3.80;;;;;;;;;;5010361;28;20299;-74
2021/07/29 12:27:42;;;;;;;9.80;4.23;;;;;;;;;;5027315;28;20225;-73
2021/07/29 12:30:27;;;;;;;8.50;4.33;;;;;;;;;;5030383;28;20206;-73
2021/07/29 12:33:15;;;;;;;7.50;3.97;;;;;;;;;;5030550;28;20237;-74
2021/07/29 12:36:01;;;;;;;7.33;4.13;;;;;;;;;;5028690;28;20213;-75
2021/07/29 12:38:48;;;;;;;7.23;3.50;;;;;;;;;;5029498;28;20730;-75
2021/07/29 12:41:34;;;;;;;9.07;4.10;;;;;;;;;;5030314;28;20209;-75
2021/07/29 12:44:20;;;;;;;8.17;4.20;;;;;;;;;;5029788;28;20350;-76
2021/07/29 12:47:10;;;;;;;11.47;4.40;;;;;;;;;;5029563;28;20697;-76
2021/07/29 12:49:57;;;;;;;10.30;4.43;;;;;;;;;;5027985;28;20208;-74
2021/07/29 12:52:42;;;;;;;10.07;4.67;;;;;;;;;;5022784;28;20259;-74
2021/07/29 12:55:36;;;;;;;10.13;4.57;;;;;;;;;;5030039;28;20690;-75
2021/07/29 12:58:37;;;;;;;9.77;4.30;;;;;;;;;;5030043;28;20210;-75
2021/07/29 13:01:22;;;;;;;9.40;3.97;;;;;;;;;;5029849;28;20212;-74
2021/07/29 13:04:07;;;;;;;9.73;4.00;;;;;;;;;;5029681;28;20736;-74
2021/07/29 13:06:54;;;;;;;9.33;4.30;;;;;;;;;;5031709;28;20260;-74
2021/07/29 13:09:39;;;;;;;9.90;4.37;;;;;;;;;;5033496;28;20206;-75
2021/07/29 13:12:24;;;;;;;10.20;4.72;;;;;;;;;;5032197;28;20477;-74
2021/07/29 13:15:09;;;;;;;10.17;4.77;;;;;;;;;;5033409;28;20205;-74
2021/07/29 13:17:54;;;;;;;10.40;4.63;;;;;;;;;;5032620;28;20209;-73
2021/07/29 13:20:39;;;;;;;8.87;4.83;;;;;;;;;;5033490;28;20209;-74
2021/07/29 13:23:26;;;;;;;8.03;4.60;;;;;;;;;;5032183;28;20275;-74
2021/07/29 13:26:11;;;;;;;10.70;4.63;;;;;;;;;;5026031;28;20340;-74
2021/07/29 13:28:57;;;;;;;9.47;4.50;;;;;;;;;;5033173;28;20704;-74
2021/07/29 13:31:42;;;;;;;9.93;4.87;;;;;;;;;;5032820;28;20212;-75
2021/07/29 13:34:28;;;;;;;9.13;4.70;;;;;;;;;;5032750;28;20235;-74
2021/07/29 13:37:13;;;;;;;10.80;4.70;;;;;;;;;;5032248;28;20198;-75
2021/07/29 13:39:59;;;;;;;8.63;4.37;;;;;;;;;;5032086;28;20268;-73
2021/07/29 13:42:47;;;;;;;11.43;4.87;;;;;;;;;;5012912;28;20237;-72
2021/07/29 13:45:32;;;;;;;11.50;4.27;;;;;;;;;;5030705;28;20320;-75
2021/07/29 13:48:17;;;;;;;12.97;5.40;;;;;;;;;;5013203;28;20207;-74
2021/07/29 13:51:02;;;;;;;9.37;4.47;;;;;;;;;;5025991;28;20263;-73
2021/07/29 13:53:47;;;;;;;9.27;3.93;;;;;;;;;;5032525;28;20221;-73
2021/07/29 13:56:34;;;;;;;6.83;4.00;;;;;;;;;;5032309;28;20209;-74
2021/07/29 13:59:19;;;;;;;6.50;3.97;;;;;;;;;;5032734;28;20328;-73
2021/07/29 14:02:04;;;;;;;9.67;3.83;;;;;;;;;;5031512;28;20216;-74
2021/07/29 14:04:49;;;;;;;9.67;4.17;;;;;;;;;;5031349;28;20741;-73
2021/07/29 14:07:34;;;;;;;9.40;4.37;;;;;;;;;;5031635;28;20202;-73
2021/07/29 14:10:20;;;;;;;9.13;4.60;;;;;;;;;;5032206;28;20213;-75
2021/07/29 14:13:06;;;;;;;9.03;4.17;;;;;;;;;;5031333;28;20357;-73
2021/07/29 14:15:52;;;;;;;10.05;4.43;;;;;;;;;;5030342;28;20453;-75
2021/07/29 14:18:38;;;;;;;9.43;4.67;;;;;;;;;;5030887;28;20224;-75
2021/07/29 14:21:31;;;;;;;8.27;4.00;;;;;;;;;;5032122;28;20264;-74
2021/07/29 14:24:15;;;;;;;9.57;3.83;;;;;;;;;;5029904;28;20268;-73
2021/07/29 14:27:00;;;;;;;10.40;4.27;;;;;;;;;;5030768;28;20690;-74
2021/07/29 14:29:46;;;;;;;9.77;4.17;;;;;;;;;;5032611;28;20206;-74
2021/07/29 14:32:31;;;;;;;9.57;4.70;;;;;;;;;;5032573;28;20210;-73
2021/07/29 14:35:16;;;;;;;11.67;4.57;;;;;;;;;;5032228;28;20205;-73
2021/07/29 14:38:02;;;;;;;10.70;4.33;;;;;;;;;;5031386;28;20213;-72
2021/07/29 14:40:48;;;;;;;7.90;4.07;;;;;;;;;;5030910;28;20213;-73
2021/07/29 14:43:33;;;;;;;7.00;3.40;;;;;;;;;;5031476;28;20234;-73
2021/07/29 14:49:24;;;;;;;7.27;3.67;;;;;;;;;;5030618;28;20569;-73
2021/07/29 14:52:09;;;;;;;8.07;3.70;;;;;;;;;;5031571;28;20210;-71
2021/07/29 14:55:00;;;;;;;6.93;3.20;;;;;;;;;;5031517;28;20628;-75
2021/07/29 16:08:20;;;;;;;5.70;3.00;;;;;;;;;;4952191;29;20826;-72
2021/07/29 16:11:05;;;;;;;6.63;2.97;;;;;;;;;;4952391;29;20684;-73
2021/07/29 16:13:55;;;;;;;5.73;2.93;;;;;;;;;;4961334;28;20215;-73
2021/07/29 16:16:40;;;;;;;7.30;3.10;;;;;;;;;;4970364;28;20299;-72
2021/07/29 16:19:26;;;;;;;6.22;3.20;;;;;;;;;;4951682;29;20412;-72
2021/07/29 16:22:13;;;;;;;6.53;2.90;;;;;;;;;;4952381;29;20319;-72
2021/07/29 16:24:58;;;;;;;6.40;3.00;;;;;;;;;;4953686;28;20329;-74
2021/07/29 16:27:42;;;;;;;5.87;2.87;;;;;;;;;;4970019;28;20283;-73
2021/07/29 16:30:27;;;;;;;7.70;3.00;;;;;;;;;;4952575;29;20212;-73
2021/07/29 16:33:12;;;;;;;6.13;2.83;;;;;;;;;;4967244;28;20739;-73
2021/07/29 16:35:57;;;;;;;7.17;2.83;;;;;;;;;;4970684;28;20227;-73
2021/07/29 16:38:44;;;;;;;6.13;3.23;;;;;;;;;;4970380;28;20208;-73
2021/07/29 16:41:29;;;;;;;6.60;3.37;;;;;;;;;;4973351;28;20320;-73
2021/07/29 16:44:14;;;;;;;6.47;3.03;;;;;;;;;;4974243;28;20335;-72
2021/07/29 16:46:59;;;;;;;4.70;2.90;;;;;;;;;;4974445;28;20645;-73
2021/07/29 16:49:43;;;;;;;6.57;3.10;;;;;;;;;;4975691;28;20207;-73
2021/07/29 16:52:28;;;;;;;6.60;2.73;;;;;;;;;;4975545;28;20215;-72
2021/07/29 16:55:15;;;;;;;6.53;3.13;;;;;;;;;;4973357;28;20243;-73
2021/07/29 16:58:00;;;;;;;6.87;3.43;;;;;;;;;;4974399;28;20210;-72
2021/07/29 17:00:45;;;;;;;4.37;2.53;;;;;;;;;;4975227;28;20756;-72
2021/07/29 17:03:31;;;;;;;5.77;2.70;;;;;;;;;;4973631;28;20211;-72
2021/07/29 17:06:16;;;;;;;7.97;3.00;;;;;;;;;;4968102;28;20754;-73
2021/07/29 17:09:01;;;;;;;9.27;3.30;;;;;;;;;;4956440;28;20227;-72
2021/07/29 17:11:48;;;;;;;5.67;2.80;;;;;;;;;;4955767;28;20591;-73
2021/07/29 17:14:33;;;;;;;5.90;3.20;;;;;;;;;;4971734;28;20732;-73
2021/07/29 17:17:18;;;;;;;8.60;3.27;;;;;;;;;;4971332;28;20218;-73
2021/07/29 17:20:03;;;;;;;7.10;3.40;;;;;;;;;;4955347;29;20539;-73
2021/07/29 17:22:48;;;;;;;6.83;3.10;;;;;;;;;;4965262;28;20267;-73
2021/07/29 17:25:33;;;;;;;5.90;3.20;;;;;;;;;;4974207;28;20234;-73
2021/07/29 17:28:20;;;;;;;6.27;3.70;;;;;;;;;;4974671;28;20719;-74
2021/07/29 17:31:05;;;;;;;7.30;3.30;;;;;;;;;;4974434;28;20218;-73
2021/07/29 17:33:50;;;;;;;6.50;3.13;;;;;;;;;;4974230;28;20214;-73
2021/07/29 17:36:35;;;;;;;6.20;2.90;;;;;;;;;;4973781;28;20262;-74
2021/07/29 17:39:21;;;;;;;9.00;4.00;;;;;;;;;;4974289;28;20334;-74
2021/07/29 17:42:06;;;;;;;5.83;3.77;;;;;;;;;;4966201;28;20217;-73
2021/07/29 17:44:52;;;;;;;4.97;2.90;;;;;;;;;;4954425;29;20601;-73
2021/07/29 17:47:38;;;;;;;5.27;3.37;;;;;;;;;;4953442;29;20675;-73